createdAt,value
2022-09-15T00:01:52.236Z,16.62
2022-09-15T00:04:18.818Z,16.65
2022-09-15T00:06:45.227Z,16.67
2022-09-15T00:09:11.575Z,16.61
2022-09-15T00:11:38.823Z,16.69
2022-09-15T00:14:07.752Z,16.73
2022-09-15T00:16:34.516Z,16.68
2022-09-15T00:19:01.585Z,16.54
2022-09-15T00:21:31.451Z,16.56
2022-09-15T00:23:59.771Z,16.49
2022-09-15T00:26:28.557Z,16.37
2022-09-15T00:28:56.970Z,16.26
2022-09-15T00:31:25.556Z,16.10
2022-09-15T00:33:54.330Z,16.16
2022-09-15T00:36:22.103Z,16.07
2022-09-15T00:38:48.825Z,16.01
2022-09-15T00:41:18.272Z,15.99
2022-09-15T00:44:02.771Z,16.00
2022-09-15T00:46:31.048Z,15.93
2022-09-15T00:49:03.816Z,15.85
2022-09-15T00:51:50.483Z,15.92
2022-09-15T00:54:41.229Z,15.89
2022-09-15T00:57:14.312Z,15.82
2022-09-15T00:59:42.719Z,15.85
2022-09-15T01:02:23.465Z,15.77
2022-09-15T01:04:57.408Z,15.83
2022-09-15T01:07:33.107Z,15.83
2022-09-15T01:10:07.201Z,15.74
2022-09-15T01:12:33.648Z,15.75
2022-09-15T01:15:01.811Z,15.82
2022-09-15T01:17:43.594Z,15.83
2022-09-15T01:20:40.140Z,15.86
2022-09-15T01:23:58.718Z,15.87
2022-09-15T01:26:38.663Z,15.84
2022-09-15T01:29:33.241Z,15.85
2022-09-15T01:32:37.433Z,15.81
2022-09-15T01:35:22.085Z,15.86
2022-09-15T01:38:26.477Z,15.86
2022-09-15T01:40:55.663Z,15.81
2022-09-15T01:43:25.180Z,15.57
2022-09-15T01:45:52.757Z,15.82
2022-09-15T01:48:23.633Z,15.84
2022-09-15T01:50:54.663Z,15.83
2022-09-15T01:53:22.432Z,15.85
2022-09-15T01:55:52.618Z,15.87
2022-09-15T01:58:18.971Z,15.99
2022-09-15T02:00:52.849Z,15.91
2022-09-15T02:03:32.057Z,15.75
2022-09-15T02:06:03.591Z,15.86
2022-09-15T02:08:39.820Z,15.77
2022-09-15T02:11:16.879Z,15.93
2022-09-15T02:13:52.511Z,15.97
2022-09-15T02:16:22.356Z,15.97
2022-09-15T02:19:11.166Z,15.83
2022-09-15T02:21:53.374Z,16.02
2022-09-15T02:24:26.295Z,15.98
2022-09-15T02:26:55.071Z,16.00
2022-09-15T02:29:23.775Z,16.04
2022-09-15T02:31:54.310Z,16.06
2022-09-15T02:34:25.954Z,16.00
2022-09-15T02:36:53.964Z,16.00
2022-09-15T02:39:27.134Z,15.98
2022-09-15T02:41:53.939Z,15.94
2022-09-15T02:44:20.355Z,15.82
2022-09-15T02:46:46.840Z,15.87
2022-09-15T02:49:14.301Z,15.86
2022-09-15T02:51:40.714Z,15.82
2022-09-15T02:54:07.326Z,15.77
2022-09-15T02:56:33.958Z,15.78
2022-09-15T02:59:00.386Z,15.72
2022-09-15T03:01:34.822Z,15.74
2022-09-15T03:04:02.953Z,15.59
2022-09-15T03:06:34.651Z,15.68
2022-09-15T03:09:05.310Z,15.54
2022-09-15T03:11:32.900Z,15.61
2022-09-15T03:14:01.822Z,15.65
2022-09-15T03:16:31.035Z,15.60
2022-09-15T03:18:59.444Z,15.63
2022-09-15T03:21:27.619Z,15.62
2022-09-15T03:23:54.040Z,15.64
2022-09-15T03:26:20.482Z,15.63
2022-09-15T03:28:46.976Z,15.57
2022-09-15T03:31:13.509Z,15.64
2022-09-15T03:33:40.271Z,15.64
2022-09-15T03:36:07.167Z,15.65
2022-09-15T03:38:33.800Z,15.64
2022-09-15T03:41:10.495Z,15.66
2022-09-15T03:43:37.850Z,15.64
2022-09-15T03:46:06.142Z,15.64
2022-09-15T03:48:35.037Z,15.61
2022-09-15T03:51:03.964Z,15.56
2022-09-15T03:53:34.627Z,15.59
2022-09-15T03:56:14.113Z,15.58
2022-09-15T03:58:40.619Z,15.55
2022-09-15T04:01:07.090Z,15.53
2022-09-15T04:03:34.092Z,15.46
2022-09-15T04:06:03.451Z,15.51
2022-09-15T04:08:29.891Z,15.49
2022-09-15T04:10:56.267Z,15.23
2022-09-15T04:13:27.975Z,15.47
2022-09-15T04:16:02.940Z,15.35
2022-09-15T04:18:30.154Z,15.47
2022-09-15T04:21:00.809Z,15.49
2022-09-15T04:23:27.988Z,15.47
2022-09-15T04:25:59.989Z,15.49
2022-09-15T04:28:31.936Z,15.49
2022-09-15T04:31:10.237Z,15.32
2022-09-15T04:33:38.377Z,15.45
2022-09-15T04:36:07.728Z,15.47
2022-09-15T04:38:35.943Z,15.46
2022-09-15T04:41:03.112Z,15.46
2022-09-15T04:43:29.703Z,15.41
2022-09-15T04:45:56.539Z,15.37
2022-09-15T04:48:23.460Z,15.32
2022-09-15T04:50:50.322Z,15.30
2022-09-15T04:53:17.037Z,15.42
2022-09-15T04:55:43.734Z,15.41
2022-09-15T04:58:10.975Z,15.38
2022-09-15T05:00:43.573Z,15.42
2022-09-15T05:03:11.931Z,15.40
2022-09-15T05:05:38.733Z,15.40
2022-09-15T05:08:05.156Z,15.40
2022-09-15T05:10:31.613Z,15.39
2022-09-15T05:12:58.013Z,15.28
2022-09-15T05:15:24.453Z,15.32
2022-09-15T05:17:51.304Z,15.36
2022-09-15T05:20:17.969Z,15.37
2022-09-15T05:22:45.410Z,15.28
2022-09-15T05:25:11.786Z,15.37
2022-09-15T05:27:39.346Z,15.37
2022-09-15T05:30:34.992Z,15.38
2022-09-15T05:32:53.790Z,15.39
2022-09-15T05:35:20.184Z,15.38
2022-09-15T05:37:46.580Z,15.34
2022-09-15T05:40:13.254Z,15.17
2022-09-15T05:42:40.406Z,15.35
2022-09-15T05:45:07.542Z,15.33
2022-09-15T05:47:34.070Z,15.28
2022-09-15T05:50:00.433Z,15.08
2022-09-15T05:52:26.785Z,15.20
2022-09-15T05:54:57.014Z,15.18
2022-09-15T05:57:25.435Z,15.24
2022-09-15T05:59:51.841Z,15.30
2022-09-15T06:02:18.350Z,15.28
2022-09-15T06:04:44.731Z,15.33
2022-09-15T06:07:11.214Z,15.21
2022-09-15T06:09:37.925Z,15.34
2022-09-15T06:12:04.796Z,15.39
2022-09-15T06:14:31.158Z,15.40
2022-09-15T06:16:57.525Z,15.25
2022-09-15T06:19:23.893Z,15.36
2022-09-15T06:21:50.926Z,15.40
2022-09-15T06:24:17.288Z,15.47
2022-09-15T06:26:43.935Z,15.52
2022-09-15T06:29:12.261Z,15.52
2022-09-15T06:31:38.914Z,15.61
2022-09-15T06:34:05.526Z,15.56
2022-09-15T06:36:32.621Z,15.69
2022-09-15T06:38:59.531Z,15.71
2022-09-15T06:41:33.037Z,15.45
2022-09-15T06:44:09.642Z,15.64
2022-09-15T06:46:36.467Z,15.53
2022-09-15T06:49:02.945Z,15.65
2022-09-15T06:51:35.334Z,15.65
2022-09-15T06:54:03.022Z,15.53
2022-09-15T06:56:32.456Z,15.59
2022-09-15T06:59:01.173Z,15.54
2022-09-15T07:01:31.762Z,15.59
2022-09-15T07:04:00.744Z,15.70
2022-09-15T07:06:31.661Z,15.82
2022-09-15T07:08:58.560Z,15.92
2022-09-15T07:11:26.092Z,16.04
2022-09-15T07:13:52.705Z,15.91
2022-09-15T07:16:20.301Z,16.21
2022-09-15T07:18:47.859Z,16.27
2022-09-15T07:21:17.039Z,16.34
2022-09-15T07:23:44.417Z,16.25
2022-09-15T07:26:17.203Z,16.46
2022-09-15T07:28:46.809Z,16.51
2022-09-15T07:31:17.117Z,16.51
2022-09-15T07:33:44.054Z,16.39
2022-09-15T07:36:10.622Z,16.45
2022-09-15T07:38:42.215Z,16.45
2022-09-15T07:41:11.385Z,16.43
2022-09-15T07:43:38.417Z,16.41
2022-09-15T07:46:05.676Z,16.42
2022-09-15T07:48:32.457Z,16.44
2022-09-15T07:50:59.949Z,16.38
2022-09-15T07:53:30.315Z,16.48
2022-09-15T07:55:57.424Z,16.50
2022-09-15T07:58:24.891Z,16.53
2022-09-15T08:00:51.823Z,16.54
2022-09-15T08:03:18.332Z,16.60
2022-09-15T08:05:45.783Z,16.64
2022-09-15T08:08:12.564Z,16.74
2022-09-15T08:10:42.784Z,16.67
2022-09-15T08:13:09.064Z,16.96
2022-09-15T08:15:37.528Z,16.89
2022-09-15T08:18:05.436Z,16.92
2022-09-15T08:20:32.174Z,17.13
2022-09-15T08:22:58.589Z,17.23
2022-09-15T08:25:25.022Z,17.23
2022-09-15T08:27:52.882Z,17.33
2022-09-15T08:30:19.867Z,17.47
2022-09-15T08:32:46.823Z,17.51
2022-09-15T08:35:14.775Z,17.70
2022-09-15T08:37:41.402Z,17.75
2022-09-15T08:40:16.260Z,17.94
2022-09-15T08:42:45.119Z,18.12
2022-09-15T08:45:23.384Z,18.31
2022-09-15T08:47:55.943Z,18.41
2022-09-15T08:50:38.913Z,18.71
2022-09-15T08:53:09.623Z,18.85
2022-09-15T08:55:41.627Z,18.90
2022-09-15T08:58:24.601Z,19.05
2022-09-15T09:01:01.830Z,19.29
2022-09-15T09:03:34.917Z,19.50
2022-09-15T09:06:38.973Z,19.83
2022-09-15T09:09:24.182Z,19.98
2022-09-15T09:11:58.920Z,20.18
2022-09-15T09:14:39.795Z,20.40
2022-09-15T09:17:40.200Z,20.59
2022-09-15T09:20:36.981Z,20.70
2022-09-15T09:23:09.704Z,20.66
2022-09-15T09:25:36.735Z,20.63
2022-09-15T09:28:30.574Z,20.64
2022-09-15T09:31:02.665Z,20.14
2022-09-15T09:33:38.603Z,19.81
2022-09-15T09:36:05.529Z,19.30
2022-09-15T09:38:36.456Z,18.85
2022-09-15T09:41:11.019Z,18.46
2022-09-15T09:43:37.629Z,18.10
2022-09-15T09:46:13.631Z,17.79
2022-09-15T09:48:45.207Z,17.69
2022-09-15T09:51:31.259Z,17.50
2022-09-15T09:54:11.697Z,17.45
2022-09-15T09:56:39.227Z,17.45
2022-09-15T09:59:05.665Z,17.54
2022-09-15T10:01:32.044Z,17.58
2022-09-15T10:04:19.115Z,18.08
2022-09-15T10:06:46.388Z,18.15
2022-09-15T10:09:18.323Z,18.47
2022-09-15T10:11:49.603Z,18.88
2022-09-15T10:14:27.746Z,19.08
2022-09-15T10:17:13.857Z,19.25
2022-09-15T10:19:54.304Z,19.29
2022-09-15T10:22:25.704Z,19.31
2022-09-15T10:24:52.877Z,19.30
2022-09-15T10:27:21.256Z,19.30
2022-09-15T10:29:47.859Z,19.39
2022-09-15T10:32:26.532Z,19.50
2022-09-15T10:35:06.668Z,19.40
2022-09-15T10:37:51.788Z,19.93
2022-09-15T10:40:50.414Z,20.10
2022-09-15T10:43:24.754Z,20.24
2022-09-15T10:46:04.155Z,20.44
2022-09-15T10:48:36.501Z,20.72
2022-09-15T10:51:37.577Z,21.01
2022-09-15T10:54:48.069Z,21.24
2022-09-15T11:00:08.235Z,21.58
2022-09-15T11:02:59.379Z,21.58
2022-09-15T11:05:48.919Z,21.90
2022-09-15T11:09:00.363Z,22.07
2022-09-15T11:11:52.981Z,22.24
2022-09-15T11:14:28.222Z,22.13
2022-09-15T11:17:19.477Z,22.10
2022-09-15T11:19:55.591Z,22.04
2022-09-15T11:22:49.713Z,21.85
2022-09-15T11:25:23.582Z,21.37
2022-09-15T11:27:53.908Z,20.92
2022-09-15T11:30:25.408Z,20.21
2022-09-15T11:32:58.191Z,19.78
2022-09-15T11:35:50.330Z,19.46
2022-09-15T11:38:48.015Z,19.12
2022-09-15T11:41:33.240Z,18.86
2022-09-15T11:44:06.302Z,18.82
2022-09-15T11:47:14.230Z,18.90
2022-09-15T11:50:01.784Z,18.86
2022-09-15T11:52:42.888Z,19.13
2022-09-15T11:55:19.437Z,19.21
2022-09-15T11:58:16.326Z,19.30
2022-09-15T12:00:54.359Z,19.29
2022-09-15T12:03:36.203Z,19.29
2022-09-15T12:06:34.984Z,19.29
2022-09-15T12:09:06.670Z,19.15
2022-09-15T12:11:41.192Z,19.37
2022-09-15T12:14:30.508Z,19.69
2022-09-15T12:16:58.104Z,20.05
2022-09-15T12:19:33.531Z,20.41
2022-09-15T12:22:11.763Z,20.61
2022-09-15T12:24:56.068Z,20.89
2022-09-15T12:27:24.795Z,21.09
2022-09-15T12:30:01.111Z,21.26
2022-09-15T12:32:35.114Z,21.40
2022-09-15T12:35:17.554Z,21.39
2022-09-15T12:37:58.191Z,21.33
2022-09-15T12:40:30.694Z,21.34
2022-09-15T12:42:57.576Z,21.32
2022-09-15T12:45:28.656Z,21.45
2022-09-15T12:48:01.850Z,21.61
2022-09-15T12:50:41.112Z,21.73
2022-09-15T12:53:31.285Z,21.99
2022-09-15T12:56:02.401Z,22.12
2022-09-15T12:58:39.612Z,22.21
2022-09-15T13:01:30.653Z,22.27
2022-09-15T13:04:00.147Z,22.22
2022-09-15T13:06:27.914Z,22.31
2022-09-15T13:08:54.342Z,22.37
2022-09-15T13:11:34.235Z,22.36
2022-09-15T13:14:03.629Z,22.27
2022-09-15T13:16:49.125Z,22.09
2022-09-15T13:19:19.301Z,21.61
2022-09-15T13:22:06.521Z,21.00
2022-09-15T13:25:03.626Z,20.31
2022-09-15T13:27:35.320Z,19.47
2022-09-15T13:30:20.607Z,19.10
2022-09-15T13:33:12.338Z,18.59
2022-09-15T13:35:57.688Z,18.22
2022-09-15T13:38:43.020Z,17.97
2022-09-15T13:41:32.836Z,17.77
2022-09-15T13:44:33.320Z,17.65
2022-09-15T13:47:08.478Z,17.52
2022-09-15T13:50:09.086Z,17.52
2022-09-15T13:52:48.992Z,17.52
2022-09-15T13:55:28.142Z,17.49
2022-09-15T14:00:55.078Z,17.75
2022-09-15T14:03:46.445Z,17.84
2022-09-15T14:06:17.877Z,18.18
2022-09-15T14:08:51.619Z,18.42
2022-09-15T14:11:25.861Z,18.75
2022-09-15T14:13:53.578Z,19.00
2022-09-15T14:16:24.767Z,19.24
2022-09-15T14:18:54.027Z,19.59
2022-09-15T14:21:23.513Z,19.81
2022-09-15T14:23:52.565Z,19.93
2022-09-15T14:26:22.818Z,20.06
2022-09-15T14:28:55.313Z,20.31
2022-09-15T14:31:51.456Z,20.36
2022-09-15T14:34:24.713Z,20.35
2022-09-15T14:37:07.171Z,20.52
2022-09-15T14:39:34.178Z,20.29
2022-09-15T14:42:32.467Z,20.15
2022-09-15T14:48:03.306Z,19.27
2022-09-15T14:50:33.153Z,18.80
2022-09-15T14:53:00.287Z,18.38
2022-09-15T14:55:31.272Z,17.82
2022-09-15T14:58:06.742Z,17.52
2022-09-15T15:01:02.213Z,17.16
2022-09-15T15:03:55.508Z,16.87
2022-09-15T15:06:37.192Z,16.69
2022-09-15T15:09:25.090Z,16.40
2022-09-15T15:11:56.842Z,16.22
2022-09-15T15:17:02.331Z,16.02
2022-09-15T15:19:34.435Z,16.04
2022-09-15T15:22:16.366Z,15.95
2022-09-15T15:24:49.047Z,15.91
2022-09-15T15:27:33.489Z,15.90
2022-09-15T15:30:29.496Z,15.90
2022-09-15T15:33:20.022Z,15.82
2022-09-15T15:35:47.356Z,15.71
2022-09-15T15:38:17.720Z,15.96
2022-09-15T15:40:45.538Z,15.98
2022-09-15T15:43:23.961Z,15.92
2022-09-15T15:46:02.260Z,16.12
2022-09-15T15:48:37.795Z,16.21
2022-09-15T15:51:06.742Z,16.33
2022-09-15T15:53:34.232Z,16.63
2022-09-15T15:56:01.157Z,16.68
2022-09-15T15:58:27.570Z,17.06
2022-09-15T16:00:56.502Z,17.25
2022-09-15T16:03:24.592Z,17.37
2022-09-15T16:05:53.796Z,17.55
2022-09-15T16:08:31.153Z,17.71
2022-09-15T16:10:59.914Z,17.77
2022-09-15T16:13:26.548Z,17.98
2022-09-15T16:15:54.367Z,18.11
2022-09-15T16:18:21.404Z,18.27
2022-09-15T16:20:47.891Z,18.39
2022-09-15T16:23:16.855Z,18.54
2022-09-15T16:26:01.493Z,18.72
2022-09-15T16:28:28.753Z,18.72
2022-09-15T16:30:56.689Z,18.69
2022-09-15T16:33:23.792Z,18.70
2022-09-15T16:36:06.321Z,18.64
2022-09-15T16:38:34.049Z,18.53
2022-09-15T16:41:01.177Z,18.37
2022-09-15T16:43:27.617Z,18.26
2022-09-15T16:45:54.192Z,18.12
2022-09-15T16:48:20.605Z,17.95
2022-09-15T16:51:16.067Z,17.86
2022-09-15T16:53:34.461Z,17.61
2022-09-15T16:56:01.006Z,17.52
2022-09-15T16:58:28.032Z,17.55
2022-09-15T17:00:54.717Z,17.35
2022-09-15T17:03:24.067Z,17.38
2022-09-15T17:05:52.781Z,17.41
2022-09-15T17:08:27.123Z,17.34
2022-09-15T17:10:56.431Z,17.26
2022-09-15T17:13:27.798Z,17.14
2022-09-15T17:15:57.252Z,16.95
2022-09-15T17:18:23.939Z,17.04
2022-09-15T17:20:50.796Z,16.78
2022-09-15T17:23:24.656Z,16.85
2022-09-15T17:25:53.288Z,16.78
2022-09-15T17:28:22.549Z,16.70
2022-09-15T17:30:51.244Z,16.63
2022-09-15T17:33:19.469Z,16.49
2022-09-15T17:35:46.631Z,16.44
2022-09-15T17:38:14.090Z,16.35
2022-09-15T17:40:40.647Z,16.23
2022-09-15T17:43:20.909Z,16.14
2022-09-15T17:45:48.025Z,16.24
2022-09-15T17:48:15.904Z,16.04
2022-09-15T17:50:42.566Z,15.98
2022-09-15T17:53:23.530Z,15.87
2022-09-15T17:55:51.177Z,15.82
2022-09-15T17:58:18.191Z,15.75
2022-09-15T18:00:45.702Z,15.67
2022-09-15T18:03:30.786Z,15.60
2022-09-15T18:06:00.218Z,15.56
2022-09-15T18:08:27.328Z,15.50
2022-09-15T18:10:54.226Z,15.40
2022-09-15T18:13:23.530Z,15.45
2022-09-15T18:15:50.812Z,15.28
2022-09-15T18:18:20.646Z,15.19
2022-09-15T18:20:49.689Z,15.25
2022-09-15T18:23:21.732Z,15.28
2022-09-15T18:25:49.178Z,15.16
2022-09-15T18:28:17.095Z,15.13
2022-09-15T18:30:46.600Z,14.94
2022-09-15T18:33:21.116Z,14.94
2022-09-15T18:35:50.183Z,14.93
2022-09-15T18:38:17.010Z,14.69
2022-09-15T18:40:49.273Z,14.76
2022-09-15T18:43:16.685Z,14.70
2022-09-15T18:45:43.127Z,14.54
2022-09-15T18:48:12.721Z,14.66
2022-09-15T18:50:40.651Z,14.54
2022-09-15T18:53:07.488Z,14.52
2022-09-15T18:55:34.077Z,14.57
2022-09-15T18:58:01.291Z,14.57
2022-09-15T19:00:28.850Z,14.66
2022-09-15T19:03:00.687Z,14.66
2022-09-15T19:05:28.811Z,14.62
2022-09-15T19:07:55.828Z,14.69
2022-09-15T19:10:22.960Z,14.62
2022-09-15T19:12:49.568Z,14.59
2022-09-15T19:15:15.957Z,14.53
2022-09-15T19:17:43.518Z,14.63
2022-09-15T19:20:12.677Z,14.62
2022-09-15T19:22:39.674Z,14.51
2022-09-15T19:25:07.712Z,14.57
2022-09-15T19:27:34.610Z,14.56
2022-09-15T19:30:01.567Z,14.51
2022-09-15T19:32:28.053Z,14.51
2022-09-15T19:34:54.407Z,14.39
2022-09-15T19:37:21.681Z,14.40
2022-09-15T19:39:49.355Z,14.29
2022-09-15T19:44:49.349Z,14.05
2022-09-15T19:47:16.287Z,14.16
2022-09-15T19:49:42.885Z,14.09
2022-09-15T19:52:09.469Z,13.94
2022-09-15T19:54:36.542Z,13.91
2022-09-15T19:57:04.102Z,13.89
2022-09-15T19:59:31.829Z,13.88
2022-09-15T20:01:59.744Z,13.70
2022-09-15T20:04:27.071Z,13.73
2022-09-15T20:06:53.563Z,13.67
2022-09-15T20:09:20.250Z,13.68
2022-09-15T20:11:46.799Z,13.49
2022-09-15T20:14:13.779Z,13.56
2022-09-15T20:16:40.522Z,13.48
2022-09-15T20:19:07.080Z,13.35
2022-09-15T20:21:52.025Z,13.33
2022-09-15T20:24:19.925Z,13.23
2022-09-15T20:26:46.533Z,13.33
2022-09-15T20:29:13.441Z,13.12
2022-09-15T20:31:40.284Z,13.36
2022-09-15T20:34:06.985Z,13.25
2022-09-15T20:36:36.474Z,13.35
2022-09-15T20:39:05.477Z,13.28
2022-09-15T20:41:32.198Z,13.34
2022-09-15T20:43:59.394Z,13.24
2022-09-15T20:46:26.463Z,13.22
2022-09-15T20:48:53.205Z,13.30
2022-09-15T20:51:22.824Z,13.29
2022-09-15T20:53:52.244Z,13.26
2022-09-15T20:56:24.743Z,13.22
2022-09-15T20:58:56.021Z,13.31
2022-09-15T21:01:25.021Z,13.32
2022-09-15T21:03:51.664Z,13.31
2022-09-15T21:06:20.871Z,13.36
2022-09-15T21:08:48.733Z,13.38
2022-09-15T21:11:17.496Z,13.30
2022-09-15T21:13:44.388Z,13.34
2022-09-15T21:16:17.249Z,13.45
2022-09-15T21:18:45.018Z,13.52
2022-09-15T21:21:20.699Z,13.43
2022-09-15T21:23:53.417Z,13.43
2022-09-15T21:26:21.111Z,13.54
2022-09-15T21:28:48.693Z,13.49
2022-09-15T21:31:20.379Z,13.51
2022-09-15T21:33:48.304Z,13.48
2022-09-15T21:36:23.230Z,13.44
2022-09-15T21:38:51.315Z,13.40
2022-09-15T21:41:23.285Z,13.31
2022-09-15T21:43:54.945Z,13.30
2022-09-15T21:46:23.992Z,13.32
2022-09-15T21:48:50.775Z,13.27
2022-09-15T21:51:23.510Z,13.17
2022-09-15T21:53:55.046Z,13.08
2022-09-15T21:56:21.955Z,13.30
2022-09-15T21:58:49.176Z,13.20
2022-09-15T22:01:17.193Z,13.15
2022-09-15T22:03:43.834Z,13.09
2022-09-15T22:06:12.021Z,13.12
2022-09-15T22:08:39.627Z,13.10
2022-09-15T22:11:07.562Z,12.90
2022-09-15T22:13:36.767Z,13.10
2022-09-15T22:16:06.378Z,12.91
2022-09-15T22:18:36.341Z,12.93
2022-09-15T22:21:08.395Z,13.11
2022-09-15T22:23:35.316Z,13.07
2022-09-15T22:26:11.209Z,13.03
2022-09-15T22:28:37.906Z,13.12
2022-09-15T22:31:06.705Z,13.11
2022-09-15T22:33:33.631Z,13.07
2022-09-15T22:36:00.120Z,13.12
2022-09-15T22:38:28.586Z,13.09
2022-09-15T22:40:55.488Z,13.09
2022-09-15T22:43:22.837Z,12.96
2022-09-15T22:45:49.603Z,12.94
2022-09-15T22:48:16.113Z,13.09
2022-09-15T22:50:45.243Z,12.87
2022-09-15T22:53:12.883Z,12.89
2022-09-15T22:55:39.805Z,13.01
2022-09-15T22:58:06.680Z,12.98
2022-09-15T23:00:33.799Z,12.76
2022-09-15T23:03:00.463Z,12.87
2022-09-15T23:05:26.842Z,12.80
2022-09-15T23:07:53.200Z,12.89
2022-09-15T23:10:19.590Z,12.73
2022-09-15T23:12:46.004Z,12.61
2022-09-15T23:15:12.471Z,12.60
2022-09-15T23:17:39.288Z,12.74
2022-09-15T23:20:05.995Z,12.67
2022-09-15T23:22:32.569Z,12.73
2022-09-15T23:24:58.943Z,12.72
2022-09-15T23:27:25.343Z,12.70
2022-09-15T23:29:51.840Z,12.71
2022-09-15T23:32:18.179Z,12.53
2022-09-15T23:34:44.593Z,12.60
2022-09-15T23:37:10.962Z,12.55
2022-09-15T23:39:37.343Z,12.36
2022-09-15T23:42:04.193Z,12.48
2022-09-15T23:44:30.533Z,12.72
2022-09-15T23:46:56.921Z,12.65
2022-09-15T23:49:23.308Z,12.60
2022-09-15T23:51:49.700Z,12.69
2022-09-15T23:54:16.207Z,12.50
2022-09-15T23:56:43.302Z,12.60
2022-09-15T23:59:09.905Z,12.47
